createdAt,value
2023-01-09T00:00:51.074Z,9.20
2023-01-09T00:03:17.784Z,9.20
2023-01-09T00:05:44.508Z,9.20
2023-01-09T00:08:11.517Z,9.30
2023-01-09T00:10:38.242Z,9.20
2023-01-09T00:13:05.013Z,9.30
2023-01-09T00:15:31.804Z,9.30
2023-01-09T00:17:58.523Z,9.40
2023-01-09T00:20:25.303Z,9.40
2023-01-09T00:22:52.131Z,9.30
2023-01-09T00:25:18.957Z,9.20
2023-01-09T00:27:45.980Z,9.10
2023-01-09T00:30:13.098Z,9.00
2023-01-09T00:32:40.530Z,9.00
2023-01-09T00:35:13.649Z,9.10
2023-01-09T00:37:40.442Z,9.00
2023-01-09T00:40:07.836Z,9.00
2023-01-09T00:42:36.526Z,9.10
2023-01-09T00:45:09.826Z,9.20
2023-01-09T00:47:43.035Z,9.30
2023-01-09T00:50:21.126Z,9.30
2023-01-09T00:52:49.800Z,9.30
2023-01-09T00:55:18.081Z,9.40
2023-01-09T00:57:45.323Z,9.40
2023-01-09T01:00:13.239Z,9.30
2023-01-09T01:02:40.189Z,9.30
2023-01-09T01:05:25.949Z,9.30
2023-01-09T01:07:52.801Z,9.30
2023-01-09T01:10:22.999Z,9.20
2023-01-09T01:12:51.232Z,9.00
2023-01-09T01:15:19.527Z,9.00
2023-01-09T01:17:46.698Z,8.90
2023-01-09T01:20:17.240Z,8.80
2023-01-09T01:22:44.141Z,8.70
2023-01-09T01:25:12.729Z,8.70
2023-01-09T01:27:40.148Z,8.70
2023-01-09T01:30:08.777Z,8.70
2023-01-09T01:32:35.450Z,8.80
2023-01-09T01:35:02.576Z,8.80
2023-01-09T01:37:29.282Z,8.90
2023-01-09T01:39:55.987Z,8.90
2023-01-09T01:42:22.713Z,8.90
2023-01-09T01:45:26.525Z,9.00
2023-01-09T01:48:02.564Z,9.10
2023-01-09T01:50:43.980Z,9.10
2023-01-09T01:53:15.571Z,9.10
2023-01-09T01:56:03.710Z,9.20
2023-01-09T01:58:31.883Z,9.10
2023-01-09T02:00:59.008Z,9.10
2023-01-09T02:03:28.649Z,9.00
2023-01-09T02:05:55.652Z,9.00
2023-01-09T02:08:23.017Z,9.10
2023-01-09T02:10:50.774Z,9.10
2023-01-09T02:13:18.560Z,9.00
2023-01-09T02:16:03.262Z,9.00
2023-01-09T02:18:35.524Z,9.00
2023-01-09T02:21:43.352Z,9.00
2023-01-09T02:24:28.806Z,9.10
2023-01-09T02:27:32.223Z,9.20
2023-01-09T02:30:17.709Z,9.20
2023-01-09T02:32:56.376Z,9.20
2023-01-09T02:35:43.668Z,9.20
2023-01-09T02:38:24.003Z,9.20
2023-01-09T02:40:59.965Z,9.20
2023-01-09T02:43:27.085Z,9.10
2023-01-09T02:45:53.883Z,9.00
2023-01-09T02:48:20.693Z,9.00
2023-01-09T02:51:19.936Z,9.10
2023-01-09T02:54:12.711Z,9.20
2023-01-09T02:57:05.345Z,9.20
2023-01-09T03:00:00.708Z,9.20
2023-01-09T03:02:39.872Z,9.20
2023-01-09T03:05:14.222Z,9.20
2023-01-09T03:07:48.196Z,9.20
2023-01-09T03:10:21.275Z,9.20
2023-01-09T03:12:52.439Z,9.10
2023-01-09T03:15:24.108Z,9.20
2023-01-09T03:17:52.226Z,9.20
2023-01-09T03:20:23.976Z,9.30
2023-01-09T03:22:56.418Z,9.20
2023-01-09T03:25:23.978Z,9.20
2023-01-09T03:28:00.380Z,9.20
2023-01-09T03:30:28.464Z,9.20
2023-01-09T03:32:55.853Z,9.20
2023-01-09T03:35:23.132Z,9.10
2023-01-09T03:37:51.638Z,9.20
2023-01-09T03:40:19.724Z,9.10
2023-01-09T03:42:47.316Z,9.10
2023-01-09T03:45:14.214Z,9.10
2023-01-09T03:47:40.980Z,9.10
2023-01-09T03:50:08.501Z,9.20
2023-01-09T03:52:36.109Z,9.20
2023-01-09T03:55:03.014Z,9.20
2023-01-09T03:57:29.825Z,9.20
2023-01-09T03:59:56.568Z,9.20
2023-01-09T04:02:23.503Z,9.20
2023-01-09T04:04:50.288Z,9.20
2023-01-09T04:07:17.110Z,9.10
2023-01-09T04:09:43.810Z,9.00
2023-01-09T04:12:10.513Z,9.00
2023-01-09T04:14:37.216Z,9.00
2023-01-09T04:17:03.939Z,9.10
2023-01-09T04:19:30.732Z,9.10
2023-01-09T04:21:57.478Z,9.00
2023-01-09T04:24:24.294Z,9.00
2023-01-09T04:26:51.310Z,8.90
2023-01-09T04:29:18.016Z,8.90
2023-01-09T04:31:44.749Z,8.90
2023-01-09T04:34:11.551Z,9.00
2023-01-09T04:36:38.725Z,9.00
2023-01-09T04:39:05.595Z,9.10
2023-01-09T04:41:50.760Z,9.20
2023-01-09T04:44:18.473Z,9.20
2023-01-09T04:46:45.531Z,9.30
2023-01-09T04:49:12.299Z,9.20
2023-01-09T04:51:38.997Z,9.00
2023-01-09T04:54:05.951Z,9.10
2023-01-09T04:56:32.892Z,9.10
2023-01-09T04:58:59.552Z,9.00
2023-01-09T05:01:26.626Z,9.10
2023-01-09T05:03:53.514Z,9.10
2023-01-09T05:06:20.316Z,8.90
2023-01-09T05:08:47.041Z,9.00
2023-01-09T05:11:13.763Z,8.90
2023-01-09T05:13:40.478Z,9.00
2023-01-09T05:16:07.706Z,9.10
2023-01-09T05:18:34.913Z,9.00
2023-01-09T05:21:01.781Z,9.00
2023-01-09T05:23:28.560Z,9.00
2023-01-09T05:25:55.469Z,9.00
2023-01-09T05:28:22.130Z,9.10
2023-01-09T05:30:49.270Z,9.00
2023-01-09T05:33:16.079Z,9.10
2023-01-09T05:35:42.768Z,9.00
2023-01-09T05:38:09.438Z,9.10
2023-01-09T05:40:40.353Z,9.10
2023-01-09T05:43:07.353Z,9.20
2023-01-09T05:45:34.382Z,9.20
2023-01-09T05:48:01.519Z,9.20
2023-01-09T05:50:28.513Z,9.10
2023-01-09T05:52:55.275Z,9.10
2023-01-09T05:55:22.259Z,9.20
2023-01-09T05:57:49.014Z,9.20
2023-01-09T06:00:16.276Z,9.20
2023-01-09T06:02:43.162Z,9.10
2023-01-09T06:05:10.063Z,9.10
2023-01-09T06:07:39.845Z,9.10
2023-01-09T06:10:12.992Z,9.00
2023-01-09T06:12:40.013Z,8.90
2023-01-09T06:15:09.060Z,8.90
2023-01-09T06:17:36.093Z,8.90
2023-01-09T06:20:02.939Z,8.90
2023-01-09T06:22:29.677Z,8.90
2023-01-09T06:24:56.394Z,8.90
2023-01-09T06:27:23.098Z,8.70
2023-01-09T06:29:49.764Z,8.90
2023-01-09T06:32:16.519Z,8.70
2023-01-09T06:34:43.343Z,8.70
2023-01-09T06:37:10.482Z,8.60
2023-01-09T06:39:37.197Z,8.70
2023-01-09T06:42:04.368Z,8.80
2023-01-09T06:44:33.068Z,8.80
2023-01-09T06:46:59.897Z,8.90
2023-01-09T06:49:26.656Z,9.00
2023-01-09T06:51:53.527Z,9.00
2023-01-09T06:54:21.162Z,9.00
2023-01-09T06:56:48.039Z,9.10
2023-01-09T06:59:14.943Z,9.10
2023-01-09T07:01:41.816Z,9.00
2023-01-09T07:04:10.928Z,8.90
2023-01-09T07:06:38.193Z,8.80
2023-01-09T07:09:08.258Z,8.90
2023-01-09T07:11:34.985Z,8.90
2023-01-09T07:14:01.692Z,8.80
2023-01-09T07:16:28.449Z,8.80
2023-01-09T07:18:55.151Z,8.80
2023-01-09T07:21:21.987Z,8.70
2023-01-09T07:23:49.094Z,8.70
2023-01-09T07:26:15.858Z,8.80
2023-01-09T07:28:42.662Z,8.90
2023-01-09T07:31:09.672Z,8.90
2023-01-09T07:33:36.441Z,8.90
2023-01-09T07:36:03.216Z,8.90
2023-01-09T07:38:30.252Z,9.00
2023-01-09T07:40:57.004Z,9.10
2023-01-09T07:43:23.805Z,9.00
2023-01-09T07:45:50.547Z,9.10
2023-01-09T07:48:17.292Z,9.10
2023-01-09T07:50:44.040Z,9.10
2023-01-09T07:53:10.757Z,9.10
2023-01-09T07:55:37.534Z,9.00
2023-01-09T07:58:04.300Z,9.00
2023-01-09T08:00:33.058Z,9.20
2023-01-09T08:03:00.035Z,9.20
2023-01-09T08:05:26.978Z,9.20
2023-01-09T08:07:53.802Z,9.00
2023-01-09T08:10:20.755Z,8.90
2023-01-09T08:12:48.662Z,8.90
2023-01-09T08:15:16.389Z,8.80
2023-01-09T08:17:45.265Z,8.90
2023-01-09T08:20:13.894Z,9.00
2023-01-09T08:22:49.614Z,9.10
2023-01-09T08:25:17.963Z,9.00
2023-01-09T08:27:44.983Z,8.90
2023-01-09T08:30:12.783Z,8.80
2023-01-09T08:32:39.778Z,8.90
2023-01-09T08:35:07.298Z,8.80
2023-01-09T08:37:34.124Z,9.00
2023-01-09T08:40:00.827Z,9.10
2023-01-09T08:42:46.214Z,9.20
2023-01-09T08:45:31.666Z,9.20
2023-01-09T08:47:58.570Z,9.20
2023-01-09T08:50:25.441Z,9.00
2023-01-09T08:52:52.188Z,9.00
2023-01-09T08:55:19.000Z,8.90
2023-01-09T08:57:50.160Z,8.80
2023-01-09T09:00:18.599Z,8.90
2023-01-09T09:02:45.534Z,8.90
2023-01-09T09:05:12.268Z,8.90
2023-01-09T09:07:39.005Z,8.80
2023-01-09T09:10:06.053Z,8.80
2023-01-09T09:12:32.773Z,8.90
2023-01-09T09:15:23.974Z,8.90
2023-01-09T09:17:56.147Z,9.00
2023-01-09T09:20:25.265Z,8.90
2023-01-09T09:22:52.038Z,9.00
2023-01-09T09:25:19.435Z,9.10
2023-01-09T09:27:46.639Z,9.00
2023-01-09T09:30:15.777Z,9.00
2023-01-09T09:32:42.597Z,9.10
2023-01-09T09:35:10.702Z,9.20
2023-01-09T09:37:38.058Z,9.20
2023-01-09T09:40:17.642Z,9.30
2023-01-09T09:43:39.021Z,9.20
2023-01-09T09:50:02.772Z,9.40
2023-01-09T09:52:32.221Z,9.50
2023-01-09T09:55:04.771Z,9.60
2023-01-09T09:57:38.032Z,9.50
2023-01-09T10:00:06.581Z,9.50
2023-01-09T10:02:47.310Z,9.40
2023-01-09T10:05:29.283Z,9.60
2023-01-09T10:08:14.873Z,9.90
2023-01-09T10:10:52.299Z,10.00
2023-01-09T10:13:45.664Z,10.00
2023-01-09T10:16:30.293Z,10.10
2023-01-09T10:19:02.908Z,10.10
2023-01-09T10:21:40.695Z,10.00
2023-01-09T10:24:29.315Z,10.00
2023-01-09T10:26:58.263Z,10.00
2023-01-09T10:30:09.273Z,10.00
2023-01-09T10:33:14.314Z,9.90
2023-01-09T10:36:18.372Z,9.90
2023-01-09T10:38:49.180Z,10.00
2023-01-09T10:41:18.765Z,10.00
2023-01-09T10:47:37.321Z,10.10
2023-01-09T10:50:22.840Z,10.10
2023-01-09T10:52:52.481Z,10.00
2023-01-09T10:55:44.590Z,10.00
2023-01-09T10:58:13.521Z,10.20
2023-01-09T11:00:41.303Z,10.10
2023-01-09T11:03:13.402Z,10.00
2023-01-09T11:05:40.789Z,10.00
2023-01-09T11:08:13.265Z,10.00
2023-01-09T11:10:53.568Z,10.10
2023-01-09T11:13:25.092Z,10.10
2023-01-09T11:16:16.053Z,10.10
2023-01-09T11:18:52.863Z,10.00
2023-01-09T11:21:31.553Z,10.10
2023-01-09T11:24:21.519Z,10.10
2023-01-09T11:26:49.870Z,10.30
2023-01-09T11:29:21.483Z,10.30
2023-01-09T11:31:59.113Z,10.50
2023-01-09T11:34:29.063Z,10.70
2023-01-09T11:37:14.054Z,10.60
2023-01-09T11:39:47.836Z,10.50
2023-01-09T11:42:43.175Z,10.60
2023-01-09T11:45:20.058Z,10.80
2023-01-09T11:47:46.912Z,10.70
2023-01-09T11:50:34.357Z,11.80
2023-01-09T11:53:17.512Z,15.70
2023-01-09T11:55:46.460Z,19.50
2023-01-09T11:58:18.284Z,20.90
2023-01-09T12:01:27.501Z,22.30
2023-01-09T12:04:15.545Z,23.70
2023-01-09T12:07:05.602Z,25.90
2023-01-09T12:09:44.356Z,27.00
2023-01-09T12:12:32.821Z,28.50
2023-01-09T12:15:18.250Z,29.70
2023-01-09T12:17:45.006Z,29.30
2023-01-09T12:20:32.221Z,29.40
2023-01-09T12:23:02.070Z,29.00
2023-01-09T12:25:57.921Z,29.60
2023-01-09T12:28:39.878Z,30.20
2023-01-09T12:31:30.740Z,29.20
2023-01-09T12:34:16.157Z,29.10
2023-01-09T12:37:06.126Z,28.80
2023-01-09T12:39:47.169Z,28.70
2023-01-09T12:42:58.624Z,28.10
2023-01-09T12:45:51.101Z,27.90
2023-01-09T12:48:35.505Z,28.80
2023-01-09T12:51:09.770Z,28.80
2023-01-09T12:57:43.750Z,29.40
2023-01-09T13:00:22.305Z,30.40
2023-01-09T13:03:20.818Z,30.10
2023-01-09T13:05:50.674Z,28.70
2023-01-09T13:08:31.167Z,29.20
2023-01-09T13:11:19.279Z,29.90
2023-01-09T13:13:55.736Z,30.30
2023-01-09T13:16:28.620Z,29.90
2023-01-09T13:19:13.006Z,29.30
2023-01-09T13:21:40.666Z,30.00
2023-01-09T13:24:35.389Z,30.50
2023-01-09T13:27:14.386Z,29.80
2023-01-09T13:29:44.012Z,29.60
2023-01-09T13:32:29.231Z,29.40
2023-01-09T13:35:01.304Z,29.30
2023-01-09T13:37:35.524Z,29.00
2023-01-09T13:40:26.485Z,28.90
2023-01-09T13:43:04.147Z,28.20
2023-01-09T13:45:34.336Z,28.50
2023-01-09T13:48:17.701Z,28.00
2023-01-09T13:50:46.822Z,27.70
2023-01-09T13:53:19.902Z,27.70
2023-01-09T13:55:59.115Z,27.70
2023-01-09T13:58:47.575Z,27.90
2023-01-09T14:01:37.624Z,28.60
2023-01-09T14:04:10.290Z,28.00
2023-01-09T14:06:37.065Z,27.70
2023-01-09T14:09:19.073Z,27.70
2023-01-09T14:11:47.109Z,26.70
2023-01-09T14:14:33.240Z,25.80
2023-01-09T14:17:03.255Z,26.00
2023-01-09T14:19:33.417Z,24.20
2023-01-09T14:22:00.935Z,21.10
2023-01-09T14:24:46.996Z,18.70
2023-01-09T14:28:03.386Z,17.00
2023-01-09T14:30:34.526Z,15.80
2023-01-09T14:33:19.466Z,15.00
2023-01-09T14:36:06.852Z,14.30
2023-01-09T14:38:53.688Z,13.80
2023-01-09T14:41:53.229Z,13.40
2023-01-09T14:44:44.811Z,13.00
2023-01-09T14:47:32.321Z,13.00
2023-01-09T14:50:23.743Z,12.90
2023-01-09T14:53:20.626Z,12.90
2023-01-09T14:55:54.499Z,12.80
2023-01-09T14:58:30.441Z,12.80
2023-01-09T15:01:12.474Z,12.80
2023-01-09T15:04:13.429Z,12.70
2023-01-09T15:06:44.860Z,12.60
2023-01-09T15:09:41.299Z,12.60
2023-01-09T15:12:09.526Z,12.50
2023-01-09T15:14:43.295Z,12.40
2023-01-09T15:17:27.035Z,12.10
2023-01-09T15:19:54.923Z,11.90
2023-01-09T15:22:36.144Z,11.70
2023-01-09T15:25:27.323Z,11.70
2023-01-09T15:27:58.177Z,11.80
2023-01-09T15:30:34.511Z,11.80
2023-01-09T15:33:04.186Z,11.80
2023-01-09T15:35:31.368Z,11.60
2023-01-09T15:37:58.744Z,11.40
2023-01-09T15:40:33.044Z,11.60
2023-01-09T15:43:01.570Z,11.60
2023-01-09T15:45:32.962Z,11.50
2023-01-09T15:48:34.367Z,11.60
2023-01-09T15:51:24.592Z,11.30
2023-01-09T15:53:51.781Z,11.20
2023-01-09T15:56:30.549Z,11.20
2023-01-09T15:58:58.810Z,11.20
2023-01-09T16:01:31.425Z,11.20
2023-01-09T16:04:13.773Z,11.10
2023-01-09T16:06:49.693Z,10.90
2023-01-09T16:09:23.252Z,11.10
2023-01-09T16:11:53.727Z,11.20
2023-01-09T16:14:27.471Z,11.10
2023-01-09T16:17:00.258Z,11.20
2023-01-09T16:19:42.058Z,11.20
2023-01-09T16:22:21.069Z,11.10
2023-01-09T16:24:48.692Z,11.30
2023-01-09T16:27:24.010Z,11.20
2023-01-09T16:29:57.522Z,11.20
2023-01-09T16:32:47.344Z,11.10
2023-01-09T16:35:21.228Z,11.10
2023-01-09T16:37:48.530Z,11.10
2023-01-09T16:40:16.868Z,11.10
2023-01-09T16:43:03.043Z,11.20
2023-01-09T16:45:41.266Z,11.20
2023-01-09T16:48:21.487Z,11.30
2023-01-09T16:50:48.250Z,11.20
2023-01-09T16:53:21.915Z,11.10
2023-01-09T16:55:49.253Z,11.00
2023-01-09T16:58:36.924Z,11.00
2023-01-09T17:01:04.129Z,11.00
2023-01-09T17:03:30.912Z,11.00
2023-01-09T17:06:00.511Z,11.00
2023-01-09T17:08:30.364Z,10.90
2023-01-09T17:10:57.776Z,11.00
2023-01-09T17:13:25.683Z,11.00
2023-01-09T17:15:53.933Z,11.00
2023-01-09T17:18:25.316Z,11.00
2023-01-09T17:20:58.188Z,10.90
2023-01-09T17:23:25.835Z,10.90
2023-01-09T17:26:16.149Z,10.90
2023-01-09T17:28:51.787Z,10.80
2023-01-09T17:31:19.142Z,10.70
2023-01-09T17:33:46.042Z,10.70
2023-01-09T17:36:34.584Z,10.60
2023-01-09T17:39:01.811Z,10.60
2023-01-09T17:41:30.730Z,10.70
2023-01-09T17:43:59.488Z,10.60
2023-01-09T17:46:32.068Z,10.70
2023-01-09T17:48:59.633Z,10.80
2023-01-09T17:51:27.098Z,10.70
2023-01-09T17:53:53.840Z,10.70
2023-01-09T17:56:24.333Z,10.70
2023-01-09T17:58:51.392Z,10.70
2023-01-09T18:01:19.793Z,10.80
2023-01-09T18:03:48.927Z,10.90
2023-01-09T18:06:18.553Z,10.90
2023-01-09T18:08:45.822Z,11.00
2023-01-09T18:11:19.655Z,11.00
2023-01-09T18:13:48.967Z,11.00
2023-01-09T18:16:21.652Z,10.90
2023-01-09T18:18:48.461Z,10.90
2023-01-09T18:21:17.712Z,11.00
2023-01-09T18:23:45.035Z,10.90
2023-01-09T18:26:19.994Z,11.00
2023-01-09T18:28:52.924Z,11.00
2023-01-09T18:31:23.446Z,11.00
2023-01-09T18:33:52.257Z,11.00
2023-01-09T18:36:21.380Z,11.10
2023-01-09T18:38:52.195Z,11.20
2023-01-09T18:41:19.617Z,11.20
2023-01-09T18:43:54.204Z,11.30
2023-01-09T18:46:24.570Z,11.30
2023-01-09T18:48:56.488Z,11.30
2023-01-09T18:51:25.385Z,11.30
2023-01-09T18:53:52.827Z,11.30
2023-01-09T18:56:20.414Z,11.50
2023-01-09T18:58:50.557Z,11.30
2023-01-09T19:01:17.509Z,11.40
2023-01-09T19:03:45.311Z,11.50
2023-01-09T19:06:12.145Z,11.50
2023-01-09T19:08:38.908Z,11.70
2023-01-09T19:11:06.029Z,11.60
2023-01-09T19:13:35.644Z,11.60
2023-01-09T19:16:04.371Z,11.70
2023-01-09T19:18:38.081Z,11.70
2023-01-09T19:21:16.045Z,11.70
2023-01-09T19:23:44.064Z,11.60
2023-01-09T19:26:23.630Z,11.60
2023-01-09T19:28:51.944Z,11.40
2023-01-09T19:31:18.860Z,11.40
2023-01-09T19:33:45.729Z,11.50
2023-01-09T19:36:12.689Z,11.40
2023-01-09T19:38:39.754Z,11.40
2023-01-09T19:41:14.170Z,11.30
2023-01-09T19:43:41.625Z,11.40
2023-01-09T19:46:10.591Z,11.30
2023-01-09T19:48:37.579Z,11.30
2023-01-09T19:51:06.160Z,11.30
2023-01-09T19:53:34.139Z,11.40
2023-01-09T19:56:14.153Z,11.30
2023-01-09T19:58:42.466Z,11.30
2023-01-09T20:01:11.748Z,11.20
2023-01-09T20:03:41.069Z,11.20
2023-01-09T20:06:14.030Z,11.20
2023-01-09T20:08:42.113Z,11.20
2023-01-09T20:11:09.337Z,11.10
2023-01-09T20:13:36.766Z,11.10
2023-01-09T20:16:04.429Z,11.00
2023-01-09T20:18:33.122Z,11.00
2023-01-09T20:20:59.978Z,11.00
2023-01-09T20:23:28.058Z,11.30
2023-01-09T20:25:56.693Z,11.20
2023-01-09T20:28:25.035Z,11.30
2023-01-09T20:30:52.689Z,11.30
2023-01-09T20:33:21.035Z,11.30
2023-01-09T20:35:48.166Z,11.40
2023-01-09T20:38:15.122Z,11.40
2023-01-09T20:40:44.887Z,11.30
2023-01-09T20:43:12.861Z,11.40
2023-01-09T20:45:40.784Z,11.40
2023-01-09T20:48:08.377Z,11.50
2023-01-09T20:50:35.198Z,11.50
2023-01-09T20:53:02.825Z,11.50
2023-01-09T20:55:30.567Z,11.50
2023-01-09T20:57:57.369Z,11.50
2023-01-09T21:00:27.447Z,11.70
2023-01-09T21:02:54.407Z,11.70
2023-01-09T21:05:22.349Z,11.70
2023-01-09T21:07:49.302Z,11.70
2023-01-09T21:10:16.407Z,11.70
2023-01-09T21:12:43.219Z,11.80
2023-01-09T21:15:15.187Z,11.80
2023-01-09T21:17:43.081Z,11.80
2023-01-09T21:20:13.295Z,11.80
2023-01-09T21:22:40.124Z,11.80
2023-01-09T21:25:07.551Z,11.80
2023-01-09T21:27:40.556Z,11.80
2023-01-09T21:30:08.567Z,11.80
2023-01-09T21:32:35.423Z,11.80
2023-01-09T21:35:06.784Z,11.80
2023-01-09T21:37:36.671Z,11.80
2023-01-09T21:40:06.357Z,11.70
2023-01-09T21:42:51.784Z,11.80
2023-01-09T21:45:37.453Z,11.70
2023-01-09T21:48:06.187Z,11.70
2023-01-09T21:50:36.522Z,11.60
2023-01-09T21:53:04.212Z,11.70
2023-01-09T21:55:33.953Z,11.70
2023-01-09T21:58:04.137Z,11.60
2023-01-09T22:00:31.251Z,11.70
2023-01-09T22:02:59.084Z,11.60
2023-01-09T22:05:27.154Z,11.60
2023-01-09T22:07:55.729Z,11.60
2023-01-09T22:10:22.585Z,11.60
2023-01-09T22:13:10.904Z,11.60
2023-01-09T22:15:37.924Z,11.60
2023-01-09T22:18:04.884Z,11.60
2023-01-09T22:20:32.027Z,11.50
2023-01-09T22:22:59.265Z,11.60
2023-01-09T22:25:26.023Z,11.60
2023-01-09T22:27:52.730Z,11.50
2023-01-09T22:30:19.787Z,11.50
2023-01-09T22:32:46.625Z,11.50
2023-01-09T22:35:13.368Z,11.50
2023-01-09T22:37:40.366Z,11.40
2023-01-09T22:40:07.775Z,11.40
2023-01-09T22:42:34.487Z,11.30
2023-01-09T22:45:01.274Z,11.40
2023-01-09T22:47:28.056Z,11.40
2023-01-09T22:49:56.020Z,11.40
2023-01-09T22:52:23.157Z,11.40
2023-01-09T22:54:49.891Z,11.30
2023-01-09T22:57:16.664Z,11.40
2023-01-09T22:59:43.394Z,11.30
2023-01-09T23:02:10.226Z,11.20
2023-01-09T23:04:37.033Z,11.20
2023-01-09T23:07:03.790Z,11.30
2023-01-09T23:09:30.552Z,11.30
2023-01-09T23:12:02.961Z,11.30
2023-01-09T23:14:32.216Z,11.20
2023-01-09T23:16:59.066Z,11.20
2023-01-09T23:19:25.866Z,11.20
2023-01-09T23:21:53.190Z,11.10
2023-01-09T23:24:19.926Z,11.10
2023-01-09T23:26:47.625Z,11.00
2023-01-09T23:29:14.561Z,10.80
2023-01-09T23:31:41.587Z,10.70
2023-01-09T23:34:08.419Z,10.60
2023-01-09T23:36:35.982Z,10.50
2023-01-09T23:39:04.189Z,10.50
2023-01-09T23:41:50.980Z,10.40
2023-01-09T23:44:17.825Z,10.40
2023-01-09T23:46:44.497Z,10.30
2023-01-09T23:49:11.350Z,10.20
2023-01-09T23:51:38.065Z,10.10
2023-01-09T23:54:05.065Z,10.00
2023-01-09T23:56:33.945Z,9.90
2023-01-09T23:59:01.952Z,9.90
